Time;durP1;ratioP1;P1;durP2;ratioP2;P2;SDS_P1;SDS_P2;PMS_P1;PMS_P2;Temp;Humidity;BMP_temperature;BMP_pressure;BME280_temperature;BME280_humidity;BME280_pressure;Samples;Min_cycle;Max_cycle;Signal;HPM_P1;HPM_P2
2023/10/07 00:03:09;;;;;;;;;;;16.90;99.90;;;;;;5137096;27;19918;-47
2023/10/07 00:05:40;;;;;;;;;;;16.90;99.90;;;;;;5136730;27;19907;-44
2023/10/07 00:08:08;;;;;;;;;;;16.90;99.90;;;;;;5136795;27;20005;-44
2023/10/07 00:10:37;;;;;;;;;;;16.90;99.90;;;;;;5136504;27;19908;-44
2023/10/07 00:13:08;;;;;;;;;;;16.80;99.90;;;;;;5136543;27;20048;-45
2023/10/07 00:15:34;;;;;;;;;;;16.90;99.90;;;;;;5136617;27;19950;-46
2023/10/07 00:18:06;;;;;;;;;;;16.80;99.90;;;;;;5136302;27;19959;-45
2023/10/07 00:20:33;;;;;;;;;;;16.90;99.90;;;;;;5136447;27;20366;-44
2023/10/07 00:23:00;;;;;;;;;;;16.90;99.90;;;;;;5136533;27;19912;-45
2023/10/07 00:25:30;;;;;;;;;;;16.90;99.90;;;;;;5124029;27;19965;-45
2023/10/07 00:27:56;;;;;;;;;;;16.90;99.90;;;;;;5115532;28;19914;-46
2023/10/07 00:30:27;;;;;;;;;;;16.90;99.90;;;;;;5115623;28;19942;-46
2023/10/07 00:32:55;;;;;;;;;;;16.90;99.90;;;;;;5115510;28;20081;-46
2023/10/07 00:35:24;;;;;;;;;;;16.90;99.90;;;;;;5115431;28;19923;-47
2023/10/07 00:37:49;;;;;;;;;;;16.90;99.90;;;;;;5115412;28;20302;-47
2023/10/07 00:40:24;;;;;;;;;;;16.90;99.90;;;;;;5115551;28;19915;-46
2023/10/07 00:42:50;;;;;;;;;;;16.90;99.90;;;;;;5115427;28;19907;-46
2023/10/07 00:45:16;;;;;;;;;;;17.00;99.90;;;;;;5115484;28;19908;-44
2023/10/07 00:47:42;;;;;;;;;;;16.90;99.90;;;;;;5115016;28;19915;-48
2023/10/07 00:50:09;;;;;;;;;;;16.90;99.90;;;;;;5130671;27;19918;-48
2023/10/07 00:52:41;;;;;;;;;;;17.00;99.90;;;;;;5128038;27;19912;-45
2023/10/07 00:59:59;;;;;;;;;;;17.00;99.90;;;;;;5132047;27;19915;-45
2023/10/07 01:02:31;;;;;;;;;;;17.00;99.90;;;;;;5121789;27;19998;-44
2023/10/07 01:05:00;;;;;;;;;;;17.00;99.90;;;;;;5135372;27;19908;-46
2023/10/07 01:07:28;;;;;;;;;;;17.00;99.90;;;;;;5135395;27;20258;-45
2023/10/07 01:10:00;;;;;;;;;;;17.00;99.90;;;;;;5133989;27;20430;-46
2023/10/07 01:12:25;;;;;;;;;;;17.00;99.90;;;;;;5132272;27;19915;-47
2023/10/07 01:14:52;;;;;;;;;;;17.00;99.90;;;;;;5117298;27;19937;-47
2023/10/07 01:17:23;;;;;;;;;;;17.00;99.90;;;;;;5121935;27;19919;-48
2023/10/07 01:19:52;;;;;;;;;;;17.00;99.90;;;;;;5135020;27;19907;-45
2023/10/07 01:22:21;;;;;;;;;;;17.00;99.90;;;;;;5123739;27;20418;-44
2023/10/07 01:24:49;;;;;;;;;;;17.00;99.90;;;;;;5114518;28;19908;-45
2023/10/07 01:30:29;;;;;;;;;;;16.90;99.90;;;;;;5114563;28;19931;-46
2023/10/07 01:32:42;;;;;;;;;;;16.90;99.90;;;;;;5108452;28;19912;-44
2023/10/07 01:35:11;;;;;;;;;;;16.80;99.90;;;;;;5131268;27;19935;-44
2023/10/07 01:37:50;;;;;;;;;;;16.80;99.90;;;;;;5130756;27;19927;-44
2023/10/07 01:40:17;;;;;;;;;;;16.80;99.90;;;;;;5114412;28;20001;-47
2023/10/07 01:42:46;;;;;;;;;;;16.70;99.90;;;;;;5114196;28;19907;-46
2023/10/07 01:45:22;;;;;;;;;;;16.70;99.90;;;;;;5114303;28;20432;-47
2023/10/07 01:47:55;;;;;;;;;;;16.70;99.90;;;;;;5114163;28;19912;-47
2023/10/07 01:50:23;;;;;;;;;;;16.70;99.90;;;;;;5114245;28;19918;-45
2023/10/07 01:52:49;;;;;;;;;;;16.70;99.90;;;;;;5114025;28;20410;-45
2023/10/07 01:55:15;;;;;;;;;;;16.70;99.90;;;;;;5114030;28;19999;-45
2023/10/07 01:57:41;;;;;;;;;;;16.70;99.90;;;;;;5112987;28;19916;-47
2023/10/07 02:00:11;;;;;;;;;;;16.70;99.90;;;;;;5114023;28;19912;-46
2023/10/07 02:02:43;;;;;;;;;;;16.70;99.90;;;;;;5113854;28;20378;-45
2023/10/07 02:05:12;;;;;;;;;;;16.70;99.90;;;;;;5114025;28;19908;-44
2023/10/07 02:07:39;;;;;;;;;;;16.70;99.90;;;;;;5113828;28;19908;-44
2023/10/07 02:10:04;;;;;;;;;;;16.70;99.90;;;;;;5113594;28;19908;-44
2023/10/07 02:12:32;;;;;;;;;;;16.70;99.90;;;;;;5113663;28;19956;-45
2023/10/07 02:15:03;;;;;;;;;;;16.70;99.90;;;;;;5113758;28;20320;-47
2023/10/07 02:17:28;;;;;;;;;;;16.80;99.90;;;;;;5113619;28;19923;-47
2023/10/07 02:19:57;;;;;;;;;;;16.80;99.90;;;;;;5113558;28;19908;-47
2023/10/07 02:22:27;;;;;;;;;;;16.80;99.90;;;;;;5113813;28;19915;-47
2023/10/07 02:25:02;;;;;;;;;;;16.80;99.90;;;;;;5113776;28;19908;-45
2023/10/07 02:27:34;;;;;;;;;;;16.90;99.90;;;;;;5113700;28;20036;-46
2023/10/07 02:29:59;;;;;;;;;;;17.00;99.90;;;;;;5113523;28;20427;-46
2023/10/07 02:32:25;;;;;;;;;;;17.00;99.90;;;;;;5113448;28;19965;-47
2023/10/07 02:34:54;;;;;;;;;;;17.00;99.90;;;;;;5113276;28;19915;-46
2023/10/07 02:37:25;;;;;;;;;;;17.10;99.90;;;;;;5113000;28;19989;-47
2023/10/07 02:40:17;;;;;;;;;;;17.10;99.90;;;;;;5113354;28;19915;-46
2023/10/07 02:42:46;;;;;;;;;;;17.20;99.90;;;;;;5113338;28;19915;-49
2023/10/07 02:45:20;;;;;;;;;;;17.20;99.90;;;;;;5113316;28;19908;-46
2023/10/07 02:47:50;;;;;;;;;;;17.20;99.90;;;;;;5113235;28;19915;-46
2023/10/07 02:50:16;;;;;;;;;;;17.20;99.90;;;;;;5113335;28;19908;-47
2023/10/07 02:52:45;;;;;;;;;;;17.20;99.90;;;;;;5113234;28;20419;-45
2023/10/07 02:57:42;;;;;;;;;;;17.30;99.90;;;;;;5113218;28;19923;-47
2023/10/07 03:00:15;;;;;;;;;;;17.30;99.90;;;;;;5113120;28;19908;-45
2023/10/07 03:02:50;;;;;;;;;;;17.30;99.90;;;;;;5112982;28;20011;-46
2023/10/07 03:05:29;;;;;;;;;;;17.40;99.90;;;;;;5113240;28;19915;-44
2023/10/07 03:08:06;;;;;;;;;;;17.40;99.90;;;;;;5113180;28;19911;-45
2023/10/07 03:10:43;;;;;;;;;;;17.40;99.90;;;;;;5123770;27;20010;-44
2023/10/07 03:13:09;;;;;;;;;;;17.50;99.90;;;;;;5137827;27;19907;-45
2023/10/07 03:18:00;;;;;;;;;;;17.50;99.90;;;;;;5137699;27;20425;-44
2023/10/07 03:28:20;;;;;;;;;;;17.60;99.90;;;;;;5123778;27;19968;-48
2023/10/07 03:30:47;;;;;;;;;;;17.70;99.90;;;;;;5116781;28;19907;-48
2023/10/07 03:33:15;;;;;;;;;;;17.60;99.90;;;;;;5137516;27;19998;-46
2023/10/07 03:38:25;;;;;;;;;;;17.60;99.90;;;;;;5137350;27;20000;-48
2023/10/07 03:40:55;;;;;;;;;;;17.60;99.90;;;;;;5137196;27;19943;-46
2023/10/07 03:43:22;;;;;;;;;;;17.60;99.90;;;;;;5133713;27;19915;-43
2023/10/07 03:45:48;;;;;;;;;;;17.60;99.90;;;;;;5116459;28;19919;-46
2023/10/07 03:48:23;;;;;;;;;;;17.60;99.90;;;;;;5116748;28;19907;-49
2023/10/07 03:50:52;;;;;;;;;;;17.60;99.90;;;;;;5116454;28;19950;-44
2023/10/07 03:53:23;;;;;;;;;;;17.60;99.90;;;;;;5116429;28;19914;-45
2023/10/07 03:55:49;;;;;;;;;;;17.60;99.90;;;;;;5116232;28;19911;-47
2023/10/07 03:58:20;;;;;;;;;;;17.50;99.90;;;;;;5116192;28;19996;-45
2023/10/07 04:00:46;;;;;;;;;;;17.60;99.90;;;;;;5116254;28;19908;-48
2023/10/07 04:03:11;;;;;;;;;;;17.60;99.90;;;;;;5116411;28;19915;-48
2023/10/07 04:05:41;;;;;;;;;;;17.60;99.90;;;;;;5116222;28;19908;-48
2023/10/07 04:08:07;;;;;;;;;;;17.60;99.90;;;;;;5116286;28;19930;-45
2023/10/07 04:10:36;;;;;;;;;;;17.60;99.90;;;;;;5116033;28;20367;-46
2023/10/07 04:13:07;;;;;;;;;;;17.50;99.90;;;;;;5115885;28;19915;-47
2023/10/07 04:15:51;;;;;;;;;;;17.60;99.90;;;;;;5115987;28;19915;-48
2023/10/07 04:18:17;;;;;;;;;;;17.50;99.90;;;;;;5115904;28;19960;-46
2023/10/07 04:23:21;;;;;;;;;;;17.60;99.90;;;;;;5115860;28;19915;-47
2023/10/07 04:25:47;;;;;;;;;;;17.60;99.90;;;;;;5115817;28;19967;-45
2023/10/07 04:28:15;;;;;;;;;;;17.60;99.90;;;;;;5116016;28;19908;-47
2023/10/07 04:30:46;;;;;;;;;;;17.60;99.90;;;;;;5124555;27;19911;-45
2023/10/07 04:33:13;;;;;;;;;;;17.60;99.90;;;;;;5136221;27;20417;-46
2023/10/07 04:35:39;;;;;;;;;;;17.60;99.90;;;;;;5130525;27;19926;-46
2023/10/07 04:38:30;;;;;;;;;;;17.60;99.90;;;;;;5116916;27;19924;-44
2023/10/07 04:43:59;;;;;;;;;;;17.60;99.90;;;;;;5121539;27;19918;-48
2023/10/07 04:46:42;;;;;;;;;;;17.70;99.90;;;;;;5135702;27;19916;-45
2023/10/07 04:49:14;;;;;;;;;;;17.70;99.90;;;;;;5136006;27;19911;-49
2023/10/07 04:54:07;;;;;;;;;;;17.70;99.90;;;;;;5135996;27;20361;-46
2023/10/07 04:56:35;;;;;;;;;;;17.70;99.90;;;;;;5133839;27;19919;-45
2023/10/07 04:59:05;;;;;;;;;;;17.70;99.90;;;;;;5124342;27;19916;-44
2023/10/07 05:01:31;;;;;;;;;;;17.70;99.90;;;;;;5115174;28;19957;-48
2023/10/07 05:04:04;;;;;;;;;;;17.70;99.90;;;;;;5131206;27;20006;-46
2023/10/07 05:06:36;;;;;;;;;;;17.70;99.90;;;;;;5135199;27;19911;-44
2023/10/07 05:09:09;;;;;;;;;;;17.70;99.90;;;;;;5135535;27;20358;-45
2023/10/07 05:11:40;;;;;;;;;;;17.70;99.90;;;;;;5130019;27;19915;-45
2023/10/07 05:14:10;;;;;;;;;;;17.70;99.90;;;;;;5126002;27;19965;-44
2023/10/07 05:16:36;;;;;;;;;;;17.60;99.90;;;;;;5127844;27;20010;-45
2023/10/07 05:19:03;;;;;;;;;;;17.60;99.90;;;;;;5133594;27;19991;-47
2023/10/07 05:21:31;;;;;;;;;;;17.60;99.90;;;;;;5115804;27;19918;-48
2023/10/07 05:24:01;;;;;;;;;;;17.60;99.90;;;;;;5114672;28;19915;-46
2023/10/07 05:26:27;;;;;;;;;;;17.60;99.90;;;;;;5114636;27;20286;-46
2023/10/07 05:28:52;;;;;;;;;;;17.60;99.90;;;;;;5114523;28;20411;-44
2023/10/07 05:31:18;;;;;;;;;;;17.60;99.90;;;;;;5128728;27;20343;-47
2023/10/07 05:33:44;;;;;;;;;;;17.60;99.90;;;;;;5120346;27;19966;-48
2023/10/07 05:36:20;;;;;;;;;;;17.60;99.90;;;;;;5126509;27;19924;-46
2023/10/07 05:38:50;;;;;;;;;;;17.60;99.90;;;;;;5121724;27;19928;-44
2023/10/07 05:41:15;;;;;;;;;;;17.60;99.90;;;;;;5123170;27;19914;-46
2023/10/07 05:43:44;;;;;;;;;;;17.60;99.90;;;;;;5133781;27;19908;-46
2023/10/07 05:46:13;;;;;;;;;;;17.60;99.90;;;;;;5128955;27;20002;-46
2023/10/07 05:48:39;;;;;;;;;;;17.60;99.90;;;;;;5119592;27;20346;-45
2023/10/07 05:51:09;;;;;;;;;;;17.60;99.90;;;;;;5120405;27;20427;-48
2023/10/07 05:53:37;;;;;;;;;;;17.60;99.90;;;;;;5124857;27;19994;-48
2023/10/07 05:56:06;;;;;;;;;;;17.60;99.90;;;;;;5123897;27;19935;-45
2023/10/07 05:58:32;;;;;;;;;;;17.60;99.90;;;;;;5122325;27;19927;-47
2023/10/07 06:00:58;;;;;;;;;;;17.60;99.90;;;;;;5120548;27;19911;-46
2023/10/07 06:03:25;;;;;;;;;;;17.60;99.90;;;;;;5121888;27;20369;-46
2023/10/07 06:05:51;;;;;;;;;;;17.60;99.90;;;;;;5123731;27;19912;-46
2023/10/07 06:08:16;;;;;;;;;;;17.60;99.90;;;;;;5120360;27;19908;-47
2023/10/07 06:10:49;;;;;;;;;;;17.70;99.90;;;;;;5122715;27;19911;-47
2023/10/07 06:13:15;;;;;;;;;;;17.60;99.90;;;;;;5119897;27;19978;-43
2023/10/07 06:15:40;;;;;;;;;;;17.60;99.90;;;;;;5123991;27;20389;-45
2023/10/07 06:18:06;;;;;;;;;;;17.60;99.90;;;;;;5122735;27;20263;-44
2023/10/07 06:20:37;;;;;;;;;;;17.70;99.90;;;;;;5122440;27;20274;-44
2023/10/07 06:23:13;;;;;;;;;;;17.70;99.90;;;;;;5124359;27;19908;-45
2023/10/07 06:25:41;;;;;;;;;;;17.70;99.90;;;;;;5120391;27;19919;-47
2023/10/07 06:28:10;;;;;;;;;;;17.70;99.90;;;;;;5120730;27;19934;-46
2023/10/07 06:30:42;;;;;;;;;;;17.70;99.90;;;;;;5116610;27;19911;-47
2023/10/07 06:33:12;;;;;;;;;;;17.70;99.90;;;;;;5115631;27;19919;-49
2023/10/07 06:35:37;;;;;;;;;;;17.70;99.90;;;;;;5121403;27;19919;-48
2023/10/07 06:38:03;;;;;;;;;;;17.60;99.90;;;;;;5122034;27;20278;-45
2023/10/07 06:40:29;;;;;;;;;;;17.60;99.90;;;;;;5123445;27;20515;-46
2023/10/07 06:42:56;;;;;;;;;;;17.70;99.90;;;;;;5123336;27;20029;-44
2023/10/07 06:45:22;;;;;;;;;;;17.70;99.90;;;;;;5120566;27;20316;-43
2023/10/07 06:47:48;;;;;;;;;;;17.70;99.90;;;;;;5122870;27;19911;-46
2023/10/07 06:50:19;;;;;;;;;;;17.70;99.90;;;;;;5123417;27;19982;-47
2023/10/07 06:52:49;;;;;;;;;;;17.70;99.90;;;;;;5122612;28;19912;-44
2023/10/07 06:55:15;;;;;;;;;;;17.70;99.90;;;;;;5122372;28;19912;-45
2023/10/07 06:57:42;;;;;;;;;;;17.70;99.90;;;;;;5105522;28;20416;-46
2023/10/07 07:00:14;;;;;;;;;;;17.60;99.90;;;;;;5120784;28;19912;-47
2023/10/07 07:02:41;;;;;;;;;;;17.70;99.90;;;;;;5119337;28;19911;-45
2023/10/07 07:05:13;;;;;;;;;;;17.70;99.90;;;;;;5123420;28;20385;-46
2023/10/07 07:07:38;;;;;;;;;;;17.70;99.90;;;;;;5120411;28;19912;-46
2023/10/07 07:10:07;;;;;;;;;;;17.70;99.90;;;;;;5121605;28;20169;-46
2023/10/07 07:12:33;;;;;;;;;;;17.70;99.90;;;;;;5117360;28;19911;-47
2023/10/07 07:15:04;;;;;;;;;;;17.70;99.90;;;;;;5122724;28;19915;-48
2023/10/07 07:17:35;;;;;;;;;;;17.70;99.90;;;;;;5118460;28;19920;-46
2023/10/07 07:22:44;;;;;;;;;;;17.70;99.90;;;;;;5113573;28;19960;-47
2023/10/07 07:25:35;;;;;;;;;;;17.70;99.90;;;;;;5124705;28;20306;-46
2023/10/07 07:28:01;;;;;;;;;;;17.70;99.90;;;;;;5123566;28;20266;-46
2023/10/07 07:30:30;;;;;;;;;;;17.80;99.90;;;;;;5127967;28;19926;-43
2023/10/07 07:32:59;;;;;;;;;;;17.80;99.90;;;;;;5119434;28;19981;-47
2023/10/07 07:35:38;;;;;;;;;;;17.90;99.90;;;;;;5119098;28;19971;-45
2023/10/07 07:41:03;;;;;;;;;;;17.90;99.90;;;;;;5133351;28;20314;-45
2023/10/07 07:43:29;;;;;;;;;;;17.90;99.90;;;;;;5118864;28;19923;-45
2023/10/07 07:46:08;;;;;;;;;;;17.90;99.90;;;;;;5116051;28;19915;-45
2023/10/07 07:48:36;;;;;;;;;;;17.90;99.90;;;;;;5120873;28;20382;-46
2023/10/07 07:51:02;;;;;;;;;;;17.90;99.90;;;;;;5118615;28;19912;-44
2023/10/07 07:53:30;;;;;;;;;;;18.00;99.90;;;;;;5120961;28;19916;-46
2023/10/07 07:55:58;;;;;;;;;;;18.00;99.90;;;;;;5121020;27;20362;-44
2023/10/07 07:58:24;;;;;;;;;;;18.00;99.90;;;;;;5133494;27;20270;-47
2023/10/07 08:00:58;;;;;;;;;;;18.00;99.90;;;;;;5121169;27;19937;-44
2023/10/07 08:03:24;;;;;;;;;;;18.00;99.90;;;;;;5115890;28;19908;-45
2023/10/07 08:05:50;;;;;;;;;;;18.00;99.90;;;;;;5115823;28;20204;-45
2023/10/07 08:08:24;;;;;;;;;;;18.00;99.90;;;;;;5116035;27;19919;-46
2023/10/07 08:10:54;;;;;;;;;;;18.10;99.90;;;;;;5116312;28;19915;-46
2023/10/07 08:13:24;;;;;;;;;;;18.20;99.90;;;;;;5107652;28;19915;-46
2023/10/07 08:15:50;;;;;;;;;;;18.30;99.90;;;;;;5115336;28;19912;-46
2023/10/07 08:18:22;;;;;;;;;;;18.30;99.90;;;;;;5126593;27;20448;-44
2023/10/07 08:20:56;;;;;;;;;;;18.40;99.90;;;;;;5120540;27;20010;-46
2023/10/07 08:23:28;;;;;;;;;;;18.40;99.90;;;;;;5124553;27;19974;-44
2023/10/07 08:26:13;;;;;;;;;;;18.50;99.90;;;;;;5114991;27;19918;-44
2023/10/07 08:28:43;;;;;;;;;;;18.60;99.90;;;;;;5113875;27;19912;-44
2023/10/07 08:31:21;;;;;;;;;;;18.60;99.90;;;;;;5123174;27;19991;-47
2023/10/07 08:33:53;;;;;;;;;;;18.60;99.90;;;;;;5115266;27;19912;-45
2023/10/07 08:36:27;;;;;;;;;;;18.60;99.90;;;;;;5112738;28;19957;-49
2023/10/07 08:38:53;;;;;;;;;;;18.60;99.90;;;;;;5127305;27;19920;-44
2023/10/07 08:41:18;;;;;;;;;;;18.60;99.90;;;;;;5132039;27;20415;-44
2023/10/07 08:43:45;;;;;;;;;;;18.50;99.90;;;;;;5131205;27;19915;-45
2023/10/07 08:46:17;;;;;;;;;;;18.50;99.90;;;;;;5132784;27;19912;-46
2023/10/07 08:49:13;;;;;;;;;;;18.50;99.90;;;;;;5121900;27;19912;-44
2023/10/07 08:51:41;;;;;;;;;;;18.50;99.90;;;;;;5112980;28;20385;-44
2023/10/07 08:54:25;;;;;;;;;;;18.60;99.90;;;;;;5134878;27;19911;-46
2023/10/07 08:56:54;;;;;;;;;;;18.60;99.90;;;;;;5135417;27;19926;-47
2023/10/07 08:59:22;;;;;;;;;;;18.60;99.90;;;;;;5131017;27;19946;-44
2023/10/07 09:01:53;;;;;;;;;;;18.60;99.90;;;;;;5114160;28;19911;-44
2023/10/07 09:04:21;;;;;;;;;;;18.60;99.90;;;;;;5112957;28;20000;-44
2023/10/07 09:06:50;;;;;;;;;;;18.70;99.90;;;;;;5117878;27;19920;-46
2023/10/07 09:09:45;;;;;;;;;;;18.70;99.90;;;;;;5126545;27;20377;-45
2023/10/07 09:12:31;;;;;;;;;;;18.60;99.90;;;;;;5094343;27;20589;-46
2023/10/07 09:15:07;;;;;;;;;;;18.70;99.90;;;;;;5117931;27;20366;-48
2023/10/07 09:17:35;;;;;;;;;;;18.70;99.90;;;;;;5122158;27;19916;-44
2023/10/07 09:20:01;;;;;;;;;;;18.70;99.90;;;;;;5124620;27;19908;-50
2023/10/07 09:22:33;;;;;;;;;;;18.70;99.90;;;;;;5125170;27;19912;-44
2023/10/07 09:25:16;;;;;;;;;;;18.80;99.90;;;;;;5124363;27;19907;-43
2023/10/07 09:27:56;;;;;;;;;;;18.80;99.90;;;;;;5122349;27;19912;-47
2023/10/07 09:33:12;;;;;;;;;;;18.90;99.90;;;;;;5113839;27;19919;-46
2023/10/07 09:35:38;;;;;;;;;;;18.90;99.90;;;;;;5114707;27;19951;-43
2023/10/07 09:38:08;;;;;;;;;;;19.00;99.90;;;;;;5116383;27;19973;-45
2023/10/07 09:43:25;;;;;;;;;;;19.00;99.90;;;;;;5133366;27;20339;-45
2023/10/07 09:45:58;;;;;;;;;;;19.00;99.90;;;;;;5132388;27;20417;-46
2023/10/07 09:48:29;;;;;;;;;;;19.00;99.90;;;;;;5132099;27;19915;-44
2023/10/07 09:50:57;;;;;;;;;;;18.90;99.90;;;;;;5132183;27;19908;-43
2023/10/07 09:53:41;;;;;;;;;;;18.90;99.90;;;;;;5132670;27;19911;-44
2023/10/07 09:56:29;;;;;;;;;;;18.90;99.90;;;;;;5133434;27;19915;-44
2023/10/07 09:59:18;;;;;;;;;;;18.90;99.90;;;;;;5128619;27;20429;-45
2023/10/07 10:01:53;;;;;;;;;;;18.90;99.90;;;;;;5111901;27;20282;-46
2023/10/07 10:04:43;;;;;;;;;;;18.90;99.90;;;;;;5113505;27;19915;-43
2023/10/07 10:07:15;;;;;;;;;;;18.90;99.90;;;;;;5113617;28;19912;-44
2023/10/07 10:12:29;;;;;;;;;;;19.00;99.90;;;;;;5113719;28;19969;-45
2023/10/07 10:15:50;;;;;;;;;;;19.10;99.90;;;;;;5116319;27;19915;-47
2023/10/07 10:17:48;;;;;;;;;;;19.10;99.90;;;;;;5119483;27;20006;-44
2023/10/07 10:20:18;;;;;;;;;;;19.20;99.90;;;;;;5125975;27;20425;-45
2023/10/07 10:23:00;;;;;;;;;;;19.20;99.90;;;;;;5117463;27;20307;-43
2023/10/07 10:25:37;;;;;;;;;;;19.20;99.90;;;;;;5127095;27;20347;-44
2023/10/07 10:28:03;;;;;;;;;;;19.10;99.90;;;;;;5122948;27;19912;-43
2023/10/07 10:30:29;;;;;;;;;;;19.10;99.90;;;;;;5116574;27;19916;-46
2023/10/07 10:33:00;;;;;;;;;;;19.20;99.90;;;;;;5117868;28;19911;-44
2023/10/07 10:35:26;;;;;;;;;;;19.20;99.90;;;;;;5128354;27;20205;-48
2023/10/07 10:37:57;;;;;;;;;;;19.40;99.90;;;;;;5128706;27;20301;-46
2023/10/07 10:40:31;;;;;;;;;;;19.50;99.90;;;;;;5114523;28;22376;-46
2023/10/07 10:42:57;;;;;;;;;;;19.60;99.90;;;;;;5125698;27;19912;-43
2023/10/07 10:45:29;;;;;;;;;;;19.70;99.90;;;;;;5121700;27;19923;-46
2023/10/07 10:48:01;;;;;;;;;;;19.70;99.90;;;;;;5122163;27;20348;-45
2023/10/07 10:50:30;;;;;;;;;;;19.70;99.90;;;;;;5116032;28;19911;-43
2023/10/07 10:52:56;;;;;;;;;;;19.80;99.90;;;;;;5124333;28;19989;-45
2023/10/07 10:55:25;;;;;;;;;;;19.80;99.90;;;;;;5120072;28;20010;-45
2023/10/07 10:57:51;;;;;;;;;;;19.80;99.90;;;;;;5112786;28;20294;-47
2023/10/07 11:00:19;;;;;;;;;;;19.90;99.90;;;;;;5095690;28;19908;-44
2023/10/07 11:02:46;;;;;;;;;;;19.90;99.90;;;;;;5112338;28;19969;-44
2023/10/07 11:05:12;;;;;;;;;;;19.90;99.90;;;;;;5112078;28;19916;-46
2023/10/07 11:07:39;;;;;;;;;;;19.90;99.90;;;;;;5112077;28;20015;-45
2023/10/07 11:10:06;;;;;;;;;;;19.90;99.90;;;;;;5124345;28;20274;-45
2023/10/07 11:12:32;;;;;;;;;;;19.90;99.90;;;;;;5112404;28;19920;-45
2023/10/07 11:15:13;;;;;;;;;;;20.00;99.90;;;;;;5112208;28;19914;-43
2023/10/07 11:17:51;;;;;;;;;;;20.00;99.90;;;;;;5111579;28;19927;-44
2023/10/07 11:20:19;;;;;;;;;;;20.00;99.90;;;;;;5111991;28;19912;-46
2023/10/07 11:22:45;;;;;;;;;;;20.00;99.90;;;;;;5112487;28;19916;-46
2023/10/07 11:25:14;;;;;;;;;;;19.90;99.90;;;;;;5112230;28;20392;-47
2023/10/07 11:27:43;;;;;;;;;;;19.90;99.90;;;;;;5127453;28;19947;-43
2023/10/07 11:30:11;;;;;;;;;;;19.90;99.90;;;;;;5133952;27;20371;-46
2023/10/07 11:32:39;;;;;;;;;;;19.90;99.90;;;;;;5129860;27;19911;-47
2023/10/07 11:35:19;;;;;;;;;;;19.90;99.90;;;;;;5117700;27;19919;-49
2023/10/07 11:37:57;;;;;;;;;;;20.00;99.90;;;;;;5133417;27;19931;-43
2023/10/07 11:40:23;;;;;;;;;;;20.00;99.90;;;;;;5124032;27;19919;-47
2023/10/07 11:42:49;;;;;;;;;;;19.90;99.90;;;;;;5122305;27;19912;-43
2023/10/07 11:45:16;;;;;;;;;;;19.90;99.90;;;;;;5119146;27;19915;-45
2023/10/07 11:47:42;;;;;;;;;;;19.80;99.90;;;;;;5118049;27;19915;-43
2023/10/07 11:50:08;;;;;;;;;;;19.70;99.90;;;;;;5116884;27;19966;-45
2023/10/07 11:52:37;;;;;;;;;;;19.70;99.90;;;;;;5117995;27;19916;-43
2023/10/07 11:55:07;;;;;;;;;;;19.60;99.90;;;;;;5112888;27;19920;-44
2023/10/07 11:57:38;;;;;;;;;;;19.50;99.90;;;;;;5120626;27;19924;-45
2023/10/07 12:00:13;;;;;;;;;;;19.50;99.90;;;;;;5122258;27;19916;-43
2023/10/07 12:02:39;;;;;;;;;;;19.40;99.90;;;;;;5119072;27;20359;-48
2023/10/07 12:05:07;;;;;;;;;;;19.50;99.90;;;;;;5123712;27;19911;-43
2023/10/07 12:07:34;;;;;;;;;;;19.50;99.90;;;;;;5118764;27;20006;-45
2023/10/07 12:10:00;;;;;;;;;;;19.60;99.90;;;;;;5120698;27;19922;-44
2023/10/07 12:12:27;;;;;;;;;;;19.70;99.90;;;;;;5121441;27;19934;-48
2023/10/07 12:14:53;;;;;;;;;;;19.70;99.90;;;;;;5120217;27;19968;-44
2023/10/07 12:17:18;;;;;;;;;;;19.60;99.90;;;;;;5120410;27;19927;-45
2023/10/07 12:19:44;;;;;;;;;;;19.60;99.90;;;;;;5125053;27;19912;-45
2023/10/07 12:22:09;;;;;;;;;;;19.60;99.90;;;;;;5121546;27;19911;-45
2023/10/07 12:24:35;;;;;;;;;;;19.60;99.90;;;;;;5127492;27;20347;-45
2023/10/07 12:27:01;;;;;;;;;;;19.60;99.90;;;;;;5124181;27;20030;-44
2023/10/07 12:29:27;;;;;;;;;;;19.70;99.90;;;;;;5117576;27;20271;-44
2023/10/07 12:31:52;;;;;;;;;;;19.80;99.90;;;;;;5121504;27;20380;-44
2023/10/07 12:34:19;;;;;;;;;;;19.90;99.90;;;;;;5118182;27;20494;-43
2023/10/07 12:36:46;;;;;;;;;;;20.00;99.90;;;;;;5127558;27;19926;-43
2023/10/07 12:39:11;;;;;;;;;;;20.00;99.90;;;;;;5123278;27;19978;-44
2023/10/07 12:41:37;;;;;;;;;;;20.00;99.90;;;;;;5120223;27;20372;-45
2023/10/07 12:44:03;;;;;;;;;;;19.90;99.90;;;;;;5114611;27;19919;-43
2023/10/07 12:46:29;;;;;;;;;;;20.00;99.90;;;;;;5115323;28;19908;-45
2023/10/07 12:48:55;;;;;;;;;;;20.00;99.90;;;;;;5119203;27;19912;-43
2023/10/07 12:51:20;;;;;;;;;;;19.90;99.90;;;;;;5123185;27;19911;-45
2023/10/07 12:53:46;;;;;;;;;;;19.90;99.90;;;;;;5119866;27;19926;-44
2023/10/07 12:56:17;;;;;;;;;;;19.90;99.90;;;;;;5118654;27;19938;-43
2023/10/07 12:58:45;;;;;;;;;;;19.90;99.90;;;;;;5114210;27;20305;-44
2023/10/07 13:01:12;;;;;;;;;;;20.10;99.90;;;;;;5120744;27;19912;-45
2023/10/07 13:03:43;;;;;;;;;;;20.30;99.90;;;;;;5121871;27;19918;-45
2023/10/07 13:06:10;;;;;;;;;;;20.50;99.90;;;;;;5123009;27;19955;-44
2023/10/07 13:08:41;;;;;;;;;;;20.70;99.90;;;;;;5123283;27;19908;-43
2023/10/07 13:11:11;;;;;;;;;;;20.60;99.90;;;;;;5120470;27;20264;-43
2023/10/07 13:13:46;;;;;;;;;;;20.70;99.90;;;;;;5121048;27;20346;-47
2023/10/07 13:16:12;;;;;;;;;;;20.80;99.90;;;;;;5122907;27;19922;-43
2023/10/07 13:18:41;;;;;;;;;;;20.80;99.90;;;;;;5125017;27;20372;-42
2023/10/07 13:21:19;;;;;;;;;;;20.70;99.90;;;;;;5122259;27;20290;-43
2023/10/07 13:23:45;;;;;;;;;;;20.60;99.90;;;;;;5117071;27;19912;-44
2023/10/07 13:26:11;;;;;;;;;;;20.40;99.90;;;;;;5114507;27;19995;-44
2023/10/07 13:28:37;;;;;;;;;;;20.30;99.90;;;;;;5125135;27;20480;-44
2023/10/07 13:31:14;;;;;;;;;;;20.30;99.90;;;;;;5118543;27;19912;-45
2023/10/07 13:33:39;;;;;;;;;;;20.20;99.90;;;;;;5125871;27;19953;-44
2023/10/07 13:36:08;;;;;;;;;;;20.20;99.90;;;;;;5120911;27;19919;-44
2023/10/07 13:38:34;;;;;;;;;;;20.10;99.90;;;;;;5113773;27;19966;-45
2023/10/07 13:41:00;;;;;;;;;;;20.00;99.90;;;;;;5114117;27;19919;-43
2023/10/07 13:43:26;;;;;;;;;;;20.00;99.90;;;;;;5113911;28;19915;-43
2023/10/07 13:45:56;;;;;;;;;;;20.00;99.90;;;;;;5124830;27;19921;-44
2023/10/07 13:48:22;;;;;;;;;;;20.00;99.90;;;;;;5134543;27;19916;-45
2023/10/07 13:50:48;;;;;;;;;;;20.00;99.90;;;;;;5134438;27;19907;-44
2023/10/07 13:53:14;;;;;;;;;;;20.00;99.90;;;;;;5123634;27;20086;-43
2023/10/07 13:58:09;;;;;;;;;;;20.10;99.90;;;;;;5128790;27;19922;-44
2023/10/07 14:03:19;;;;;;;;;;;20.20;99.90;;;;;;5134250;27;19915;-45
2023/10/07 14:05:48;;;;;;;;;;;20.10;99.90;;;;;;5134438;27;20281;-44
2023/10/07 14:08:18;;;;;;;;;;;19.90;99.90;;;;;;5133192;27;19957;-44
2023/10/07 14:10:47;;;;;;;;;;;19.80;99.90;;;;;;5133937;27;19963;-44
2023/10/07 14:13:23;;;;;;;;;;;19.70;99.90;;;;;;5134140;27;20333;-49
2023/10/07 14:15:52;;;;;;;;;;;19.60;99.90;;;;;;5096016;28;19908;-46
2023/10/07 14:18:20;;;;;;;;;;;19.50;99.90;;;;;;5114386;28;20381;-45
2023/10/07 14:20:56;;;;;;;;;;;19.50;99.90;;;;;;5114915;27;19914;-43
2023/10/07 14:23:21;;;;;;;;;;;19.40;99.90;;;;;;5114006;28;20278;-46
2023/10/07 14:25:50;;;;;;;;;;;19.30;99.90;;;;;;5130538;27;20490;-46
2023/10/07 14:28:19;;;;;;;;;;;19.30;99.90;;;;;;5134652;27;19912;-46
2023/10/07 14:30:52;;;;;;;;;;;19.30;99.90;;;;;;5134028;27;19999;-45
2023/10/07 14:33:18;;;;;;;;;;;19.30;99.90;;;;;;5134268;27;19994;-43
2023/10/07 14:35:44;;;;;;;;;;;19.20;99.90;;;;;;5125107;27;19942;-46
2023/10/07 14:38:10;;;;;;;;;;;19.20;99.90;;;;;;5113924;28;19915;-44
2023/10/07 14:40:37;;;;;;;;;;;19.10;99.90;;;;;;5113686;28;19912;-42
2023/10/07 14:43:04;;;;;;;;;;;19.10;99.90;;;;;;5121539;27;19915;-45
2023/10/07 14:45:30;;;;;;;;;;;19.10;99.90;;;;;;5113653;28;19912;-45
2023/10/07 14:47:55;;;;;;;;;;;19.00;99.90;;;;;;5113748;28;19919;-43
2023/10/07 14:50:20;;;;;;;;;;;19.00;99.90;;;;;;5120920;27;19911;-43
2023/10/07 14:52:48;;;;;;;;;;;19.00;99.90;;;;;;5130526;27;19924;-46
2023/10/07 14:55:13;;;;;;;;;;;19.00;99.90;;;;;;5121508;28;19911;-44
2023/10/07 14:57:39;;;;;;;;;;;19.00;99.90;;;;;;5122528;28;20014;-43
2023/10/07 15:00:10;;;;;;;;;;;19.00;99.90;;;;;;5102122;28;19938;-44
2023/10/07 15:02:36;;;;;;;;;;;18.90;99.90;;;;;;5122673;28;19908;-44
2023/10/07 15:05:02;;;;;;;;;;;18.90;99.90;;;;;;5122351;27;20642;-45
2023/10/07 15:07:28;;;;;;;;;;;18.90;99.90;;;;;;5128708;27;19912;-44
2023/10/07 15:09:56;;;;;;;;;;;18.90;99.90;;;;;;5123850;27;19992;-44
2023/10/07 15:12:21;;;;;;;;;;;18.90;99.90;;;;;;5126137;27;19918;-46
2023/10/07 15:14:46;;;;;;;;;;;18.90;99.90;;;;;;5125702;27;19912;-44
2023/10/07 15:17:12;;;;;;;;;;;18.90;99.90;;;;;;5125767;27;20289;-45
2023/10/07 15:19:37;;;;;;;;;;;18.80;99.90;;;;;;5125051;27;19998;-44
2023/10/07 15:22:05;;;;;;;;;;;18.80;99.90;;;;;;5124300;27;20360;-43